• Join FlightAware (Why Join?)
  • Login
  • US Flag 
11:23PM EST


 

Airport Tracker/Info


-or-


 

Live Flight TrackerFlight Track Log ✈ N884WT ✈ 07-Nov-2013 ✈ KSJC - KCRQ

Flight Track Log - Related Links

Times and Time Zones

All times are in EST time to prevent confusion due to time zone crossing. See the N884WT flight status page for this flight to view local times or setup timezone preferences in your user account.

Time Position Orientation Groundspeed Altitude Reporting Facility
EST Latitude Longitude Course Direction KTS MPH feet Rate Location/Type
01:28AM 37.3833 -121.9500 345° North 172 198 2,300  Level Northern Cal TRACON
01:29AM 37.4333 -121.9667 345° North 201 231 4,300 1,740 Climbing Northern Cal TRACON
01:30AM 37.4000 -121.8833 117° Southeast 283 326 5,800 2,460 Climbing Northern Cal TRACON
01:30AM 37.3725 -121.8578 144° Southeast 276 318 8,200 3,420 Climbing Oakland Center
01:31AM 37.3122 -121.7900 138° Southeast 294 338 11,200 2,580 Climbing Oakland Center
01:32AM 37.2347 -121.7036 138° Southeast 365 420 13,500 2,640 Climbing Oakland Center
01:33AM 37.1542 -121.6139 138° Southeast 385 443 16,600 2,940 Climbing Oakland Center
01:34AM 37.0644 -121.5164 139° Southeast 407 468 19,500 2,640 Climbing Oakland Center
01:35AM 36.9772 -121.4164 137° Southeast 422 486 22,000 2,340 Climbing Oakland Center
01:36AM 36.8856 -121.3161 139° Southeast 435 501 24,300 2,400 Climbing Oakland Center
01:37AM 36.7900 -121.2153 140° Southeast 450 518 26,900 2,280 Climbing Oakland Center
01:38AM 36.6922 -121.1097 139° Southeast 462 532 28,900 1,020 Climbing Oakland Center
01:39AM 36.5931 -121.0008 139° Southeast 473 544 29,000  Climbing Oakland Center
01:40AM 36.4950 -120.8919 138° Southeast 474 545 29,000 960 Level Oakland Center
01:41AM 36.3747 -120.7583 138° Southeast 479 551 31,000 2,400 Climbing Oakland Center
01:42AM 36.2719 -120.6483 139° Southeast 486 559 33,900 2,820 Climbing Oakland Center
01:43AM 36.1714 -120.5400 139° Southeast 483 556 36,800 2,280 Climbing Oakland Center
01:44AM 36.0719 -120.4322 139° Southeast 477 549 38,600 1,740 Climbing Oakland Center
01:45AM 35.9719 -120.3253 139° Southeast 475 547 40,400 1,140 Climbing Oakland Center
01:46AM 35.8719 -120.2186 139° Southeast 473 544 41,000 240 Climbing Oakland Center
01:47AM 35.7731 -120.1125 139° Southeast 470 541 41,000  Level Oakland Center
01:48AM 35.6722 -120.0067 140° Southeast 472 543 41,000  Level Oakland Center
01:49AM 35.5867 -119.9256 142° Southeast 474 545 41,000  Level Los Angeles Center
01:50AM 35.4794 -119.8325 145° Southeast 470 541 41,000  Level Los Angeles Center
01:51AM 35.3719 -119.7400 145° Southeast 469 540 41,000 -120 Level Los Angeles Center
01:52AM 35.2525 -119.6361 145° Southeast 469 540 40,800 -1,260 Descending Los Angeles Center
01:54AM 35.0692 -119.4817 145° Southeast 472 543 37,500 -1,920 Descending Los Angeles Center
01:55AM 34.9622 -119.3892 145° Southeast 471 542 35,500 -2,040 Descending Los Angeles Center
01:56AM 34.8331 -119.2808 145° Southeast 470 541 33,400 -1,920 Descending Los Angeles Center
01:57AM 34.7228 -119.1883 145° Southeast 478 550 31,700 -1,680 Descending Los Angeles Center
01:58AM 34.6194 -119.1036 146° Southeast 481 554 30,100 -1,680 Descending Los Angeles Center
01:59AM 34.5086 -119.0089 145° Southeast 487 560 28,300 -1,740 Descending Los Angeles Center
02:00AM 34.3969 -118.9167 146° Southeast 486 559 26,600 -1,740 Descending Los Angeles Center
02:01AM 34.2936 -118.8175 142° Southeast 477 549 24,900 -1,320 Descending Los Angeles Center
02:02AM 34.1964 -118.7125 138° Southeast 470 541 24,000 -480 Descending Los Angeles Center
02:03AM 34.0989 -118.6092 139° Southeast 468 539 24,000 -60 Level Los Angeles Center
02:04AM 33.9869 -118.4942 140° Southeast 471 542 23,900 -780 Descending Los Angeles Center
02:05AM 33.8706 -118.4589 166° South 442 509 22,500 -1,500 Descending Los Angeles Center
02:06AM 33.7481 -118.4975 195° South 426 490 20,900 -1,620 Descending Los Angeles Center
02:07AM 33.6408 -118.5333 196° South 416 479 19,300 -1,560 Descending Los Angeles Center
02:08AM 33.5411 -118.5008 165° South 400 460 17,800 -1,440 Descending Los Angeles Center
02:09AM 33.5011 -118.3772 111° Southeast 404 465 16,400 -1,440 Descending Los Angeles Center
02:10AM 33.4681 -118.2533 108° East 400 460 14,900 -1,320 Descending Los Angeles Center
02:11AM 33.4400 -118.1450 107° East 368 423 13,800 -1,200 Descending Los Angeles Center
02:12AM 33.4103 -118.0367 108° East 351 404 12,500 -1,320 Descending Los Angeles Center
02:13AM 33.3831 -117.9331 107° East 340 391 11,200 -1,200 Descending Los Angeles Center
02:14AM 33.3569 -117.8392 108° East 313 360 10,100 -1,140 Descending Los Angeles Center
02:15AM 33.3314 -117.7467 108° East 300 345 9,000 -1,260 Descending Los Angeles Center
02:16AM 33.3022 -117.6383 108° East 289 333 7,600 -1,260 Descending Los Angeles Center
02:17AM 33.2833 -117.5667 107° East 285 328 6,700 -1,080 Descending Southern California TRACON
02:18AM 33.2500 -117.4667 112° Southeast 281 323 5,600 -900 Descending Southern California TRACON
02:19AM 33.2333 -117.3833 103° East 274 315 5,000 -360 Descending Southern California TRACON
02:20AM 33.2333 -117.3000 90° East 278 320 5,000  Level Southern California TRACON
02:21AM 33.2333 -117.2000 90° East 273 314 5,000  Level Southern California TRACON
02:22AM 33.2333 -117.1167 90° East 225 259 5,000  Level Southern California TRACON
02:23AM 33.2333 -117.0500 90° East 224 258 5,100 -300 Climbing Southern California TRACON
02:24AM 33.1667 -117.0000 148° Southeast 207 238 4,400 -480 Descending Southern California TRACON
02:25AM 33.1667 -117.0500 270° West 174 200 4,200 -600 Descending Southern California TRACON
02:26AM 33.1500 -117.1167 253° West 171 197 3,200 -960 Descending Southern California TRACON
02:27AM 33.1500 -117.1667 270° West 155 178 2,200 -900 Descending Southern California TRACON
02:28AM 33.1333 -117.2000 239° Southwest 142 163 1,600 -780 Descending Southern California TRACON
02:29AM 33.1333 -117.2500 270° West 140 161 800 -660 Descending Southern California TRACON
02:30AM 33.1333 -117.2833 270° West 136 157 400 -480 Descending Southern California TRACON